createdAt,value
2018-04-24T00:02:16.621Z,32.30
2018-04-24T00:04:45.021Z,31.37
2018-04-24T00:07:13.422Z,30.20
2018-04-24T00:09:41.829Z,29.00
2018-04-24T00:12:10.305Z,32.20
2018-04-24T00:14:38.666Z,32.07
2018-04-24T00:17:07.036Z,30.43
2018-04-24T00:19:35.360Z,30.83
2018-04-24T00:22:03.737Z,28.87
2018-04-24T00:24:32.064Z,30.47
2018-04-24T00:27:00.410Z,29.63
2018-04-24T00:29:28.780Z,30.87
2018-04-24T00:31:57.117Z,28.60
2018-04-24T00:34:25.464Z,31.00
2018-04-24T00:36:53.872Z,29.40
2018-04-24T00:39:22.191Z,29.27
2018-04-24T00:41:50.545Z,28.57
2018-04-24T00:44:19.178Z,30.00
2018-04-24T00:46:47.889Z,29.57
2018-04-24T00:49:17.515Z,30.77
2018-04-24T00:51:46.339Z,28.63
2018-04-24T00:54:14.765Z,31.73
2018-04-24T00:56:43.153Z,33.03
2018-04-24T00:59:11.490Z,30.77
2018-04-24T01:01:39.862Z,31.20
2018-04-24T01:04:08.207Z,32.47
2018-04-24T01:06:36.535Z,31.33
2018-04-24T01:09:04.892Z,32.10
2018-04-24T01:11:33.231Z,33.97
2018-04-24T01:14:01.573Z,32.20
2018-04-24T01:16:29.904Z,33.33
2018-04-24T01:18:58.360Z,32.90
2018-04-24T01:21:26.693Z,30.93
2018-04-24T01:23:55.040Z,33.90
2018-04-24T01:26:23.377Z,33.63
2018-04-24T01:28:51.785Z,32.27
2018-04-24T01:31:20.119Z,33.33
2018-04-24T01:33:48.493Z,29.57
2018-04-24T01:36:16.834Z,29.40
2018-04-24T01:38:45.243Z,30.33
2018-04-24T01:41:13.643Z,29.90
2018-04-24T01:43:42.015Z,33.80
2018-04-24T01:46:10.352Z,31.23
2018-04-24T01:48:38.680Z,29.73
2018-04-24T01:51:07.037Z,30.10
2018-04-24T01:53:35.372Z,32.90
2018-04-24T01:56:03.719Z,32.53
2018-04-24T01:58:32.069Z,34.40
2018-04-24T02:01:00.461Z,33.03
2018-04-24T02:03:28.794Z,30.50
2018-04-24T02:05:57.210Z,32.93
2018-04-24T02:08:25.636Z,32.13
2018-04-24T02:10:54.080Z,31.53
2018-04-24T02:13:22.417Z,33.20
2018-04-24T02:15:51.059Z,30.70
2018-04-24T02:18:19.524Z,33.63
2018-04-24T02:20:47.886Z,32.13
2018-04-24T02:23:16.218Z,31.87
2018-04-24T02:25:44.582Z,29.83
2018-04-24T02:28:12.964Z,31.60
2018-04-24T02:30:41.333Z,32.50
2018-04-24T02:33:09.788Z,30.23
2018-04-24T02:35:38.102Z,31.63
2018-04-24T02:38:07.541Z,30.87
2018-04-24T02:40:35.905Z,31.20
2018-04-24T02:43:04.281Z,33.57
2018-04-24T02:45:32.605Z,33.50
2018-04-24T02:48:00.945Z,33.80
2018-04-24T02:50:29.344Z,34.50
2018-04-24T02:52:57.709Z,34.17
2018-04-24T02:55:26.042Z,33.90
2018-04-24T02:57:54.375Z,33.73
2018-04-24T03:00:22.730Z,36.13
2018-04-24T03:02:51.065Z,33.23
2018-04-24T03:05:19.404Z,37.17
2018-04-24T03:07:47.737Z,34.87
2018-04-24T03:10:16.080Z,35.70
2018-04-24T03:12:44.407Z,34.83
2018-04-24T03:15:12.754Z,35.57
2018-04-24T03:17:41.097Z,35.70
2018-04-24T03:20:09.437Z,37.60
2018-04-24T03:22:37.773Z,36.90
2018-04-24T03:25:06.101Z,34.90
2018-04-24T03:27:34.463Z,35.33
2018-04-24T03:30:02.779Z,34.03
2018-04-24T03:32:31.119Z,35.13
2018-04-24T03:34:59.440Z,34.03
2018-04-24T03:37:27.784Z,34.87
2018-04-24T03:39:56.124Z,35.97
2018-04-24T03:42:24.459Z,35.53
2018-04-24T03:44:52.768Z,36.30
2018-04-24T03:47:21.127Z,36.87
2018-04-24T03:49:49.450Z,36.50
2018-04-24T03:52:17.776Z,33.73
2018-04-24T03:54:46.108Z,37.07
2018-04-24T03:57:14.467Z,36.47
2018-04-24T03:59:42.793Z,36.43
2018-04-24T04:02:11.133Z,37.93
2018-04-24T04:04:39.467Z,35.83
2018-04-24T04:07:07.789Z,37.37
2018-04-24T04:09:36.181Z,38.97
2018-04-24T04:12:04.529Z,38.47
2018-04-24T04:14:33.435Z,37.23
2018-04-24T04:17:13.539Z,35.63
2018-04-24T04:19:53.721Z,36.93
2018-04-24T04:22:34.067Z,39.53
2018-04-24T04:25:02.546Z,38.63
2018-04-24T04:27:30.874Z,40.57
2018-04-24T04:30:00.057Z,37.57
2018-04-24T04:32:28.392Z,36.43
2018-04-24T04:34:56.747Z,39.13
2018-04-24T04:37:25.069Z,37.10
2018-04-24T04:39:53.439Z,36.17
2018-04-24T04:42:21.770Z,39.87
2018-04-24T04:44:50.127Z,34.93
2018-04-24T04:47:18.452Z,36.23
2018-04-24T04:49:46.804Z,33.80
2018-04-24T04:52:15.161Z,34.13
2018-04-24T04:54:43.535Z,33.07
2018-04-24T04:57:11.873Z,33.30
2018-04-24T04:59:40.351Z,32.20
2018-04-24T05:02:08.701Z,32.93
2018-04-24T05:04:37.039Z,30.70
2018-04-24T05:07:05.379Z,29.07
2018-04-24T05:09:33.717Z,32.33
2018-04-24T05:12:02.098Z,33.03
2018-04-24T05:14:30.410Z,28.07
2018-04-24T05:16:58.790Z,32.63
2018-04-24T05:19:27.146Z,31.10
2018-04-24T05:21:58.021Z,30.20
2018-04-24T05:24:26.349Z,29.30
2018-04-24T05:26:54.679Z,30.10
2018-04-24T05:29:23.013Z,30.70
2018-04-24T05:31:51.368Z,29.07
2018-04-24T05:34:19.703Z,28.67
2018-04-24T05:36:48.061Z,29.53
2018-04-24T05:39:16.401Z,28.73
2018-04-24T05:41:44.729Z,24.13
2018-04-24T05:44:13.074Z,23.07
2018-04-24T05:46:41.482Z,21.37
2018-04-24T05:49:09.835Z,20.97
2018-04-24T05:51:38.163Z,20.73
2018-04-24T05:54:06.521Z,20.37
2018-04-24T05:56:34.870Z,20.30
2018-04-24T05:59:03.235Z,21.60
2018-04-24T06:01:31.575Z,21.07
2018-04-24T06:03:59.965Z,19.53
2018-04-24T06:06:28.534Z,19.40
2018-04-24T06:08:56.964Z,20.67
2018-04-24T06:11:26.265Z,19.00
2018-04-24T06:13:54.624Z,18.23
2018-04-24T06:16:22.959Z,18.63
2018-04-24T06:18:51.317Z,17.37
2018-04-24T06:21:19.651Z,18.23
2018-04-24T06:23:48.000Z,16.20
2018-04-24T06:26:16.358Z,16.67
2018-04-24T06:28:44.708Z,16.50
2018-04-24T06:31:13.044Z,15.53
2018-04-24T06:33:41.384Z,16.70
2018-04-24T06:36:09.743Z,16.73
2018-04-24T06:38:38.065Z,17.10
2018-04-24T06:41:06.525Z,16.43
2018-04-24T06:43:34.875Z,17.70
2018-04-24T06:46:03.209Z,16.60
2018-04-24T06:48:31.554Z,17.97
2018-04-24T06:50:59.898Z,18.13
2018-04-24T06:53:28.242Z,20.03
2018-04-24T06:55:56.662Z,17.57
2018-04-24T06:58:24.994Z,17.53
2018-04-24T07:00:53.371Z,17.70
2018-04-24T07:03:21.696Z,19.90
2018-04-24T07:05:50.020Z,16.23
2018-04-24T07:08:18.359Z,16.83
2018-04-24T07:10:46.742Z,14.87
2018-04-24T07:13:15.099Z,16.20
2018-04-24T07:15:43.575Z,17.03
2018-04-24T07:18:11.901Z,16.87
2018-04-24T07:20:40.241Z,16.70
2018-04-24T07:23:08.630Z,16.20
2018-04-24T07:25:36.961Z,17.47
2018-04-24T07:28:05.306Z,16.20
2018-04-24T07:30:33.729Z,17.00
2018-04-24T07:33:02.152Z,17.43
2018-04-24T07:35:31.437Z,16.43
2018-04-24T07:37:59.780Z,16.43
2018-04-24T07:40:28.127Z,17.17
2018-04-24T07:42:56.465Z,15.63
2018-04-24T07:45:24.811Z,16.13
2018-04-24T07:47:53.216Z,17.40
2018-04-24T07:50:21.556Z,17.70
2018-04-24T07:52:49.895Z,16.97
2018-04-24T07:55:18.252Z,16.67
2018-04-24T07:57:46.595Z,17.47
2018-04-24T08:00:14.996Z,16.27
2018-04-24T08:02:43.307Z,16.90
2018-04-24T08:05:11.657Z,16.03
2018-04-24T08:07:39.999Z,17.37
2018-04-24T08:10:08.331Z,15.67
2018-04-24T08:12:36.669Z,16.47
2018-04-24T08:15:05.017Z,16.13
2018-04-24T08:17:33.351Z,16.07
2018-04-24T08:20:01.692Z,15.03
2018-04-24T08:22:39.582Z,12.83
2018-04-24T08:25:08.095Z,13.77
2018-04-24T08:27:36.433Z,12.47
2018-04-24T08:30:04.786Z,14.70
2018-04-24T08:32:33.110Z,15.53
2018-04-24T08:35:01.468Z,13.67
2018-04-24T08:37:29.810Z,12.60
2018-04-24T08:39:58.376Z,14.40
2018-04-24T08:42:26.707Z,14.40
2018-04-24T08:44:55.037Z,15.67
2018-04-24T08:47:23.404Z,15.93
2018-04-24T08:49:51.843Z,14.63
2018-04-24T08:52:20.183Z,14.40
2018-04-24T08:54:48.536Z,13.93
2018-04-24T08:57:16.875Z,13.30
2018-04-24T08:59:45.217Z,13.80
2018-04-24T09:02:13.571Z,13.27
2018-04-24T09:04:46.326Z,13.27
2018-04-24T09:07:14.661Z,12.97
2018-04-24T09:09:43.003Z,14.03
2018-04-24T09:12:11.353Z,12.93
2018-04-24T09:14:39.707Z,11.23
2018-04-24T09:17:08.041Z,11.53
2018-04-24T09:19:36.377Z,11.00
2018-04-24T09:22:04.712Z,12.03
2018-04-24T09:24:33.037Z,13.07
2018-04-24T09:27:02.270Z,11.03
2018-04-24T09:29:30.558Z,10.30
2018-04-24T09:31:58.910Z,11.03
2018-04-24T09:34:27.240Z,10.43
2018-04-24T09:36:55.622Z,11.07
2018-04-24T09:39:24.012Z,9.63
2018-04-24T09:41:52.340Z,10.17
2018-04-24T09:44:20.697Z,10.07
2018-04-24T09:46:49.034Z,9.57
2018-04-24T09:49:17.368Z,9.83
2018-04-24T09:51:45.773Z,9.17
2018-04-24T09:54:14.182Z,9.00
2018-04-24T09:56:42.779Z,9.70
2018-04-24T09:59:11.112Z,8.83
2018-04-24T10:01:39.436Z,9.40
2018-04-24T10:04:07.781Z,8.27
2018-04-24T10:06:36.130Z,9.83
2018-04-24T10:09:04.460Z,7.57
2018-04-24T10:11:32.796Z,9.07
2018-04-24T10:14:01.138Z,9.27
2018-04-24T10:16:29.452Z,8.67
2018-04-24T10:18:57.785Z,8.00
2018-04-24T10:21:26.107Z,9.27
2018-04-24T10:23:55.131Z,8.90
2018-04-24T10:26:23.464Z,8.73
2018-04-24T10:28:51.793Z,8.93
2018-04-24T10:31:20.124Z,8.90
2018-04-24T10:33:48.458Z,9.07
2018-04-24T10:36:16.799Z,9.37
2018-04-24T10:38:45.147Z,8.17
2018-04-24T10:41:13.829Z,8.90
2018-04-24T10:43:42.250Z,7.77
2018-04-24T10:46:10.541Z,8.73
2018-04-24T10:48:38.895Z,8.03
2018-04-24T10:51:11.795Z,6.20
2018-04-24T10:53:42.441Z,7.90
2018-04-24T10:56:10.763Z,8.13
2018-04-24T10:58:39.073Z,8.30
2018-04-24T11:01:08.643Z,7.03
2018-04-24T11:03:37.144Z,6.17
2018-04-24T11:06:05.497Z,6.03
2018-04-24T11:08:33.826Z,5.50
2018-04-24T11:11:04.132Z,5.50
2018-04-24T11:13:33.489Z,4.77
2018-04-24T11:16:01.839Z,4.97
2018-04-24T11:18:30.158Z,5.27
2018-04-24T11:20:59.090Z,4.70
2018-04-24T11:23:27.426Z,7.07
2018-04-24T11:25:55.811Z,4.80
2018-04-24T11:28:24.116Z,5.20
2018-04-24T11:30:55.106Z,4.67
2018-04-24T11:33:23.486Z,4.13
2018-04-24T11:35:51.874Z,4.43
2018-04-24T11:38:20.178Z,3.97
2018-04-24T11:40:49.668Z,4.40
2018-04-24T11:43:18.535Z,4.67
2018-04-24T11:45:46.861Z,4.50
2018-04-24T11:48:15.172Z,4.13
2018-04-24T11:50:45.707Z,4.70
2018-04-24T11:53:14.080Z,4.40
2018-04-24T11:55:42.419Z,3.87
2018-04-24T11:58:10.732Z,4.50
2018-04-24T12:00:39.662Z,3.50
2018-04-24T12:03:08.200Z,4.00
2018-04-24T12:05:36.523Z,3.53
2018-04-24T12:08:04.858Z,3.97
2018-04-24T12:10:33.168Z,3.37
2018-04-24T12:13:01.501Z,3.30
2018-04-24T12:15:29.824Z,3.33
2018-04-24T12:17:58.146Z,3.67
2018-04-24T12:20:26.596Z,3.50
2018-04-24T12:22:54.897Z,4.03
2018-04-24T12:25:23.340Z,3.90
2018-04-24T12:27:51.653Z,3.23
2018-04-24T12:30:20.808Z,3.57
2018-04-24T12:32:49.141Z,3.63
2018-04-24T12:35:17.463Z,4.27
2018-04-24T12:37:45.794Z,3.30
2018-04-24T12:40:15.217Z,4.07
2018-04-24T12:42:43.547Z,3.30
2018-04-24T12:45:11.951Z,3.37
2018-04-24T12:47:40.255Z,3.43
2018-04-24T12:50:08.658Z,3.80
2018-04-24T12:52:36.995Z,3.83
2018-04-24T12:55:05.317Z,4.40
2018-04-24T12:57:33.631Z,3.57
2018-04-24T13:00:01.957Z,3.37
2018-04-24T13:02:30.278Z,2.93
2018-04-24T13:04:58.619Z,4.07
2018-04-24T13:07:26.926Z,3.40
2018-04-24T13:09:55.269Z,2.67
2018-04-24T13:12:23.605Z,2.80
2018-04-24T13:14:51.993Z,4.10
2018-04-24T13:17:20.377Z,3.40
2018-04-24T13:19:48.821Z,3.17
2018-04-24T13:22:17.167Z,3.30
2018-04-24T13:24:45.487Z,3.00
2018-04-24T13:27:13.848Z,2.73
2018-04-24T13:29:42.237Z,3.53
2018-04-24T13:32:10.641Z,3.20
2018-04-24T13:34:38.946Z,3.33
2018-04-24T13:37:07.288Z,3.97
2018-04-24T13:39:35.594Z,3.03
2018-04-24T13:42:03.976Z,3.73
2018-04-24T13:44:32.249Z,2.70
2018-04-24T13:47:01.467Z,4.93
2018-04-24T13:49:29.784Z,3.00
2018-04-24T13:51:58.174Z,3.03
2018-04-24T13:54:26.582Z,2.93
2018-04-24T13:56:54.941Z,2.80
2018-04-24T13:59:23.249Z,3.13
2018-04-24T14:01:51.584Z,3.27
2018-04-24T14:04:19.890Z,3.10
2018-04-24T14:06:48.212Z,2.87
2018-04-24T14:09:16.530Z,2.83
2018-04-24T14:11:44.851Z,4.07
2018-04-24T14:14:13.169Z,2.63
2018-04-24T14:16:41.475Z,3.17
2018-04-24T14:19:09.791Z,3.47
2018-04-24T14:21:38.138Z,2.40
2018-04-24T14:24:06.432Z,3.47
2018-04-24T14:26:34.757Z,3.00
2018-04-24T14:29:03.077Z,2.87
2018-04-24T14:31:31.400Z,2.90
2018-04-24T14:33:59.726Z,2.37
2018-04-24T14:36:28.097Z,2.37
2018-04-24T14:38:56.408Z,2.70
2018-04-24T14:41:24.724Z,2.00
2018-04-24T14:43:53.055Z,2.20
2018-04-24T14:46:21.379Z,2.13
2018-04-24T14:48:49.736Z,2.63
2018-04-24T14:51:18.057Z,2.23
2018-04-24T14:53:46.392Z,2.33
2018-04-24T14:56:14.723Z,2.40
2018-04-24T14:58:43.061Z,3.20
2018-04-24T15:01:11.442Z,1.93
2018-04-24T15:03:41.134Z,3.00
2018-04-24T15:06:09.494Z,2.13
2018-04-24T15:08:37.799Z,2.20
2018-04-24T15:11:06.205Z,2.07
2018-04-24T15:13:35.192Z,2.33
2018-04-24T15:16:03.528Z,2.77
2018-04-24T15:18:31.842Z,2.43
2018-04-24T15:21:00.158Z,2.20
2018-04-24T15:23:28.490Z,2.77
2018-04-24T15:25:56.810Z,2.20
2018-04-24T15:28:25.152Z,2.80
2018-04-24T15:30:53.510Z,2.10
2018-04-24T15:33:21.935Z,2.30
2018-04-24T15:35:50.279Z,2.70
2018-04-24T15:38:18.607Z,2.97
2018-04-24T15:40:46.951Z,3.50
2018-04-24T15:43:15.273Z,3.33
2018-04-24T15:45:43.583Z,2.43
2018-04-24T15:48:11.940Z,3.03
2018-04-24T15:50:40.282Z,2.13
2018-04-24T15:53:08.611Z,2.60
2018-04-24T15:55:36.929Z,2.60
2018-04-24T15:58:05.243Z,2.73
2018-04-24T16:00:33.550Z,2.60
2018-04-24T16:03:01.885Z,2.60
2018-04-24T16:05:30.213Z,2.70
2018-04-24T16:07:58.546Z,3.17
2018-04-24T16:10:26.854Z,3.13
2018-04-24T16:12:55.252Z,2.70
2018-04-24T16:15:23.648Z,2.57
2018-04-24T16:17:51.966Z,2.50
2018-04-24T16:20:20.279Z,2.50
2018-04-24T16:22:49.456Z,2.63
2018-04-24T16:25:17.776Z,3.27
2018-04-24T16:27:46.109Z,2.67
2018-04-24T16:30:14.428Z,2.87
2018-04-24T16:32:42.749Z,3.37
2018-04-24T16:35:11.075Z,3.40
2018-04-24T16:37:39.524Z,25.07
2018-04-24T16:40:07.851Z,9.10
2018-04-24T16:42:36.183Z,9.07
2018-04-24T16:45:04.550Z,18.90
2018-04-24T16:47:32.859Z,5.30
2018-04-24T16:50:01.193Z,4.50
2018-04-24T16:52:29.503Z,3.20
2018-04-24T16:54:57.826Z,3.90
2018-04-24T16:57:26.149Z,3.93
2018-04-24T16:59:54.482Z,3.33
2018-04-24T17:02:25.836Z,4.30
2018-04-24T17:04:54.175Z,3.37
2018-04-24T17:07:22.480Z,4.60
2018-04-24T17:09:50.803Z,4.07
2018-04-24T17:12:19.719Z,4.03
2018-04-24T17:14:48.065Z,4.07
2018-04-24T17:17:16.422Z,3.17
2018-04-24T17:19:44.732Z,3.50
2018-04-24T17:22:13.103Z,3.50
2018-04-24T17:24:43.095Z,2.90
2018-04-24T17:27:11.420Z,3.10
2018-04-24T17:29:39.747Z,2.80
2018-04-24T17:32:08.067Z,3.10
2018-04-24T17:34:36.393Z,3.33
2018-04-24T17:37:04.721Z,3.47
2018-04-24T17:39:33.102Z,3.77
2018-04-24T17:42:01.404Z,3.83
2018-04-24T17:44:29.739Z,4.07
2018-04-24T17:46:58.108Z,5.50
2018-04-24T17:49:26.419Z,6.00
2018-04-24T17:51:54.767Z,9.53
2018-04-24T17:54:23.082Z,8.63
2018-04-24T17:56:51.436Z,6.77
2018-04-24T17:59:19.805Z,5.90
2018-04-24T18:01:48.117Z,5.30
2018-04-24T18:04:16.441Z,4.37
2018-04-24T18:06:44.747Z,4.70
2018-04-24T18:09:13.106Z,4.00
2018-04-24T18:11:41.440Z,4.43
2018-04-24T18:14:09.781Z,4.07
2018-04-24T18:16:38.075Z,4.33
2018-04-24T18:19:06.417Z,4.63
2018-04-24T18:21:34.797Z,4.83
2018-04-24T18:24:03.076Z,5.53
2018-04-24T18:26:31.384Z,5.63
2018-04-24T18:28:59.719Z,6.70
2018-04-24T18:31:28.027Z,5.33
2018-04-24T18:33:56.363Z,5.50
2018-04-24T18:36:24.672Z,5.67
2018-04-24T18:38:53.019Z,5.00
2018-04-24T18:41:21.331Z,5.87
2018-04-24T18:43:49.657Z,5.10
2018-04-24T18:46:17.978Z,5.57
2018-04-24T18:48:46.336Z,4.57
2018-04-24T18:51:14.646Z,4.97
2018-04-24T18:53:42.972Z,5.20
2018-04-24T18:56:11.283Z,4.80
2018-04-24T18:58:39.618Z,5.50
2018-04-24T19:01:07.923Z,6.77
2018-04-24T19:03:36.256Z,6.03
2018-04-24T19:06:04.576Z,6.17
2018-04-24T19:08:32.889Z,6.63
2018-04-24T19:11:05.176Z,5.60
2018-04-24T19:13:33.478Z,5.80
2018-04-24T19:16:01.823Z,6.00
2018-04-24T19:18:35.712Z,6.30
2018-04-24T19:21:04.049Z,5.10
2018-04-24T19:23:32.361Z,5.77
2018-04-24T19:26:00.695Z,6.87
2018-04-24T19:28:29.041Z,6.37
2018-04-24T19:30:57.347Z,5.30
2018-04-24T19:33:25.668Z,5.97
2018-04-24T19:35:54.003Z,5.20
2018-04-24T19:38:22.320Z,5.93
2018-04-24T19:40:56.302Z,5.40
2018-04-24T19:43:24.762Z,5.33
2018-04-24T19:45:53.898Z,5.97
2018-04-24T19:48:28.006Z,6.30
2018-04-24T19:50:56.340Z,5.07
2018-04-24T19:53:24.645Z,4.57
2018-04-24T19:55:52.988Z,5.37
2018-04-24T19:58:21.300Z,5.27
2018-04-24T20:00:49.621Z,5.07
2018-04-24T20:03:17.938Z,5.67
2018-04-24T20:05:46.260Z,4.83
2018-04-24T20:08:14.584Z,5.67
2018-04-24T20:10:42.916Z,5.27
2018-04-24T20:13:11.286Z,5.27
2018-04-24T20:15:39.609Z,5.23
2018-04-24T20:18:07.908Z,4.97
2018-04-24T20:20:36.309Z,5.07
2018-04-24T20:23:04.671Z,5.40
2018-04-24T20:25:32.963Z,4.90
2018-04-24T20:28:01.324Z,4.70
2018-04-24T20:30:29.642Z,5.60
2018-04-24T20:32:57.956Z,5.07
2018-04-24T20:35:26.306Z,5.53
2018-04-24T20:37:55.590Z,6.33
2018-04-24T20:40:23.947Z,9.03
2018-04-24T20:42:52.285Z,6.13
2018-04-24T20:45:20.587Z,6.37
2018-04-24T20:47:48.912Z,6.57
2018-04-24T20:50:17.227Z,6.13
2018-04-24T20:52:45.551Z,6.07
2018-04-24T20:55:13.977Z,6.33
2018-04-24T20:57:42.377Z,6.90
2018-04-24T21:00:10.685Z,6.70
2018-04-24T21:02:39.015Z,6.03
2018-04-24T21:05:07.329Z,7.13
2018-04-24T21:07:35.640Z,6.77
2018-04-24T21:10:03.959Z,5.97
2018-04-24T21:12:32.289Z,6.70
2018-04-24T21:15:00.620Z,6.53
2018-04-24T21:17:28.927Z,5.20
2018-04-24T21:19:57.252Z,5.70
2018-04-24T21:22:25.596Z,6.77
2018-04-24T21:24:53.931Z,6.50
2018-04-24T21:27:22.245Z,5.00
2018-04-24T21:29:50.563Z,5.23
2018-04-24T21:32:18.875Z,5.63
2018-04-24T21:34:47.184Z,5.67
2018-04-24T21:37:16.109Z,6.00
2018-04-24T21:39:44.432Z,5.50
2018-04-24T21:42:12.759Z,5.77
2018-04-24T21:44:41.087Z,5.80
2018-04-24T21:47:09.397Z,5.30
2018-04-24T21:49:37.745Z,6.27
2018-04-24T21:52:06.060Z,5.80
2018-04-24T21:54:34.467Z,6.07
2018-04-24T21:57:02.780Z,6.30
2018-04-24T21:59:31.105Z,5.70
2018-04-24T22:01:59.462Z,6.30
2018-04-24T22:04:27.782Z,5.13
2018-04-24T22:06:56.187Z,5.83
2018-04-24T22:09:24.501Z,5.40
2018-04-24T22:11:52.809Z,6.87
2018-04-24T22:14:21.162Z,6.87
2018-04-24T22:16:49.489Z,5.97
2018-04-24T22:19:17.813Z,5.77
2018-04-24T22:21:46.132Z,5.13
2018-04-24T22:24:14.450Z,6.17
2018-04-24T22:26:42.815Z,6.53
2018-04-24T22:29:11.174Z,5.70
2018-04-24T22:31:39.509Z,7.47
2018-04-24T22:34:07.833Z,6.33
2018-04-24T22:36:36.145Z,6.10
2018-04-24T22:39:04.489Z,6.43
2018-04-24T22:41:32.810Z,6.40
2018-04-24T22:44:01.165Z,7.40
2018-04-24T22:46:29.551Z,7.33
2018-04-24T22:48:57.877Z,7.13
2018-04-24T22:51:26.196Z,7.20
2018-04-24T22:53:54.525Z,8.83
2018-04-24T22:56:22.850Z,7.47
2018-04-24T22:58:51.163Z,7.83
2018-04-24T23:01:19.527Z,6.87
2018-04-24T23:03:47.866Z,5.73
2018-04-24T23:06:16.232Z,5.77
2018-04-24T23:08:44.584Z,6.23
2018-04-24T23:11:24.697Z,7.23
2018-04-24T23:14:04.863Z,6.40
2018-04-24T23:16:45.208Z,6.80
2018-04-24T23:19:28.720Z,5.60
2018-04-24T23:21:56.612Z,7.00
2018-04-24T23:24:24.946Z,6.13
2018-04-24T23:26:53.293Z,5.80
2018-04-24T23:29:21.620Z,6.83
2018-04-24T23:31:49.972Z,6.43
2018-04-24T23:34:18.294Z,6.03
2018-04-24T23:36:46.650Z,5.90
2018-04-24T23:39:14.981Z,7.03
2018-04-24T23:41:43.339Z,7.10
2018-04-24T23:44:11.645Z,6.60
2018-04-24T23:46:40.025Z,7.00
2018-04-24T23:49:08.340Z,6.97
2018-04-24T23:51:36.648Z,6.47
2018-04-24T23:54:04.983Z,6.60
2018-04-24T23:56:34.927Z,6.70
2018-04-24T23:59:03.297Z,6.97
